KBOS/BOS METAR and TAF weather

Enter ICAO airport designator
Station Type Date Time Source
KBOS METAR 2019/08/19 22:54 UTC NOAA

KBOS 192254Z 25014G21KT 10SM FEW023 FEW050 BKN140 BKN230 27/19 A2991 RMK AO2 LTG DSNT SW SLP128 T02720189


Station Type Date Time Source
KBOS Decoded METAR 2019/08/19 22:54 UTC NOAA

BOSTON LOGAN INTERNATIONAL, MA, United States (KBOS) 42-22N 071-01W 54M
Aug 19, 2019 - 06:54 PM EDT / 2019.08.19 2254 UTC
Wind: from the WSW (250 degrees) at 16 MPH (14 KT) gusting to 24 MPH (21 KT):0
Visibility: 10 mile(s):0
Sky conditions: mostly cloudy
Weather: Lightning observed
Temperature: 81.0 F (27.2 C)
Dew Point: 66.0 F (18.9 C)
Relative Humidity: 60%
Pressure (altimeter): 29.91 in. Hg (1012 hPa)
ob: KBOS 192254Z 25014G21KT 10SM FEW023 FEW050 BKN140 BKN230 27/19 A2991 RMK AO2 LTG DSNT SW SLP128 T02720189
cycle: 23

Station Type Date Time Source
KBOS TAF 2019/08/19 21:15 UTC NOAA

TAF
AMD KBOS 192108Z 1921/2024 25008KT P6SM VCSH SCT015 BKN050
FM192300 22009KT P6SM BKN200
FM200200 25008KT P6SM FEW200
FM200500 28007KT P6SM FEW250

Example: see airport list